Terminal Aerodrome Forecast
Issued by NWS

Home | Current Version | Previous Version | Text Only | Print | Product List | Glossary On
Versions: 1 2 3 4 5 6 7 8 9 10 11 12 13 14 15 16 17 18 19 20 21 22
000
FTUS46 KEKA 210535
TAFCEC
TAF
KCEC 210535Z 2106/2206 20014KT 1 1/2SM -RA BR OVC004
     FM211100 18010KT 5SM -RA SCT007 OVC015
     FM211700 19012KT 4SM -RA SCT007 OVC015
     FM220200 19003KT 5SM BR OVC020=

USA.gov is the U.S. government's official web portal to all federal, state and local government web resources and services.